Station Historical Data
Daily Summary for May 18, 2017 Units:  English    Metric   Both
« Previous Day
Next Day »
Daily Weekly Monthly Yearly Custom
  High: Low: Average:
Temperature: 86.7 °F 70.3 °F 77.4 °F
Dew Point: 69.0 °F 58.8 °F 65.3 °F
Humidity: 85% 47% 67%
Wind Speed: 1.0mph 0.0mph 0mph
Wind Gust: 3.0mph - -
Wind- - NNW
Pressure: 30.12 in 30.02 in -
Precipitation: 0.00 in    
Historical Graphs
 
 
Tabular Data for May 18, 2017
Time Temperature Dew Point Pressure Wind Wind Speed Wind Gust Humidity Rainfall Rate (Hourly) Conditions
00:00 73.8 °F 59.0 °F 30.04 in Calm     60% 0.00 in SCT
00:15 73.7 °F 58.9 °F 30.04 in Calm     60% 0.00 in SCT
00:30 74.0 °F 58.8 °F 30.04 in Calm     59% 0.00 in SCT
00:45 74.2 °F 59.4 °F 30.05 in Calm     60% 0.00 in SCT
01:00 73.9 °F 61.4 °F 30.05 in Calm     65% 0.00 in SCT
01:15 73.3 °F 61.3 °F 30.05 in Calm     66% 0.00 in SCT
01:30 72.9 °F 61.3 °F 30.05 in Calm     67% 0.00 in SCT
01:45 72.8 °F 61.6 °F 30.05 in Calm     68% 0.00 in SCT
02:00 72.5 °F 60.5 °F 30.05 in Calm     66% 0.00 in SCT
02:15 72.8 °F 61.2 °F 30.05 in Calm     67% 0.00 in SCT
02:30 72.9 °F 61.7 °F 30.05 in Calm     68% 0.00 in SCT
02:45 72.9 °F 61.7 °F 30.06 in Calm     68% 0.00 in SCT
03:00 72.7 °F 62.8 °F 30.06 in Calm     71% 0.00 in SCT
03:15 71.3 °F 63.7 °F 30.05 in Calm     77% 0.00 in SCT
03:30 70.3 °F 63.8 °F 30.05 in Calm     80% 0.00 in SCT
03:45 70.3 °F 63.8 °F 30.05 in Calm     80% 0.00 in SCT
04:00 70.3 °F 63.8 °F 30.06 in Calm     80% 0.00 in SCT
04:15 70.3 °F 63.8 °F 30.05 in Calm     80% 0.00 in SCT
04:30 70.3 °F 63.8 °F 30.06 in Calm     80% 0.00 in SCT
04:45 70.3 °F 63.8 °F 30.06 in Calm     80% 0.00 in SCT
05:00 70.3 °F 63.8 °F 30.06 in Calm     80% 0.00 in SCT
05:15 70.3 °F 63.8 °F 30.06 in Calm     80% 0.00 in SCT
05:30 70.3 °F 63.8 °F 30.07 in Calm     80% 0.00 in SCT
05:45 70.3 °F 63.8 °F 30.07 in Calm     80% 0.00 in SCT
06:00 70.3 °F 63.8 °F 30.07 in Calm     80% 0.00 in SCT
06:15 70.3 °F 63.8 °F 30.07 in Calm     80% 0.00 in SCT
06:30 70.3 °F 63.8 °F 30.08 in Calm     80% 0.00 in SCT
06:45 70.3 °F 63.8 °F 30.08 in Calm     80% 0.00 in SCT
07:00 70.3 °F 63.8 °F 30.09 in Calm     80% 0.00 in SCT
07:15 70.3 °F 63.8 °F 30.09 in Calm     80% 0.00 in SCT
07:30 70.3 °F 63.8 °F 30.10 in Calm     80% 0.00 in SCT
07:45 70.3 °F 63.8 °F 30.10 in Calm     80% 0.00 in SCT
08:00 70.3 °F 63.8 °F 30.10 in Calm     80% 0.00 in SCT
08:15 70.9 °F 65.5 °F 30.11 in Calm     83% 0.00 in SCT
08:30 73.1 °F 66.2 °F 30.11 in Calm     79% 0.00 in SCT
08:45 74.2 °F 65.8 °F 30.11 in Calm     75% 0.00 in SCT
09:00 75.3 °F 66.8 °F 30.12 in Calm     75% 0.00 in SCT
09:15 76.1 °F 66.8 °F 30.12 in Calm     73% 0.00 in SCT
09:30 77.0 °F 67.7 °F 30.12 in Calm     73% 0.00 in SCT
09:45 77.1 °F 67.4 °F 30.12 in Calm     72% 0.00 in SCT
10:00 77.8 °F 67.6 °F 30.12 in Calm     71% 0.00 in SCT
10:15 77.3 °F 67.6 °F 30.12 in Calm     72% 0.00 in SCT
10:30 77.4 °F 67.7 °F 30.12 in Calm     72% 0.00 in SCT
10:45 78.2 °F 68.0 °F 30.12 in Calm   1.0 mph 71% 0.00 in SCT
11:00 79.7 °F 68.7 °F 30.12 in Calm   1.0 mph 69% 0.00 in SCT
11:15 80.4 °F 68.0 °F 30.12 in Calm   2.0 mph 66% 0.00 in SCT
11:30 80.1 °F 68.6 °F 30.12 in Calm   2.0 mph 68% 0.00 in SCT
11:45 81.4 °F 67.6 °F 30.11 in Calm   1.0 mph 63% 0.00 in SCT
12:00 81.7 °F 68.3 °F 30.11 in Calm   2.0 mph 64% 0.00 in SCT
12:30 82.6 °F 68.7 °F 30.11 in Calm   1.0 mph 63% 0.00 in SCT
12:45 82.4 °F 69.0 °F 30.10 in NNW 1.0 mph 1.0 mph 64% 0.00 in SCT
13:00 83.2 °F 68.4 °F 30.10 in Calm   1.0 mph 61% 0.00 in SCT
13:15 84.8 °F 67.4 °F 30.09 in Calm   2.0 mph 56% 0.00 in SCT
13:30 85.4 °F 66.3 °F 30.09 in Calm   2.0 mph 53% 0.00 in SCT
13:45 84.7 °F 67.8 °F 30.09 in Calm     57% 0.00 in SCT
14:00 84.6 °F 67.2 °F 30.08 in Calm   2.0 mph 56% 0.00 in SCT
14:15 86.4 °F 65.6 °F 30.07 in Calm   2.0 mph 50% 0.00 in SCT
14:30 86.2 °F 65.9 °F 30.06 in Calm   3.0 mph 51% 0.00 in SCT
14:45 85.9 °F 65.1 °F 30.06 in Calm   1.0 mph 50% 0.00 in SCT
15:00 85.4 °F 65.2 °F 30.06 in Calm   1.0 mph 51% 0.00 in SCT
15:15 85.2 °F 66.1 °F 30.06 in Calm   1.0 mph 53% 0.00 in SCT
15:30 85.9 °F 66.2 °F 30.05 in Calm   3.0 mph 52% 0.00 in SCT
15:45 86.7 °F 64.7 °F 30.05 in Calm   1.0 mph 48% 0.00 in SCT
16:00 86.1 °F 65.9 °F 30.04 in Calm   1.0 mph 51% 0.00 in SCT
16:15 85.8 °F 65.6 °F 30.04 in Calm     51% 0.00 in SCT
16:30 85.8 °F 63.2 °F 30.03 in Calm   1.0 mph 47% 0.00 in SCT
16:45 85.6 °F 66.5 °F 30.03 in Calm   1.0 mph 53% 0.00 in SCT
17:00 86.0 °F 65.8 °F 30.03 in Calm   1.0 mph 51% 0.00 in SCT
17:15 85.6 °F 64.8 °F 30.03 in Calm     50% 0.00 in SCT
17:30 84.6 °F 66.2 °F 30.02 in Calm   1.0 mph 54% 0.00 in SCT
17:45 85.1 °F 66.0 °F 30.02 in Calm   1.0 mph 53% 0.00 in SCT
18:00 85.6 °F 67.0 °F 30.03 in Calm   2.0 mph 54% 0.00 in SCT
18:15 85.5 °F 65.9 °F 30.03 in Calm   1.0 mph 52% 0.00 in SCT
18:30 84.4 °F 63.2 °F 30.02 in Calm   1.0 mph 49% 0.00 in SCT
18:45 83.7 °F 64.8 °F 30.03 in Calm     53% 0.00 in SCT
19:00 83.4 °F 66.1 °F 30.03 in Calm     56% 0.00 in SCT
19:15 83.0 °F 67.2 °F 30.02 in Calm     59% 0.00 in SCT
19:30 82.5 °F 66.2 °F 30.02 in Calm     58% 0.00 in SCT
19:45 81.5 °F 65.8 °F 30.02 in Calm     59% 0.00 in SCT
20:00 80.8 °F 65.7 °F 30.03 in Calm     60% 0.00 in SCT
20:15 80.4 °F 67.1 °F 30.03 in Calm     64% 0.00 in SCT
20:30 79.7 °F 67.3 °F 30.04 in Calm     66% 0.00 in SCT
20:45 78.9 °F 67.5 °F 30.04 in Calm     68% 0.00 in SCT
21:00 77.9 °F 66.5 °F 30.04 in Calm     68% 0.00 in SCT
21:15 77.0 °F 66.5 °F 30.04 in Calm     70% 0.00 in SCT
21:30 76.3 °F 66.6 °F 30.03 in Calm     72% 0.00 in SCT
21:45 75.7 °F 66.8 °F 30.04 in Calm     74% 0.00 in SCT
22:00 75.1 °F 67.0 °F 30.04 in Calm     76% 0.00 in SCT
22:15 74.7 °F 67.4 °F 30.04 in Calm     78% 0.00 in SCT
22:30 74.2 °F 67.3 °F 30.04 in Calm     79% 0.00 in SCT
22:45 73.8 °F 67.2 °F 30.05 in Calm     80% 0.00 in SCT
23:00 73.5 °F 67.7 °F 30.05 in Calm     82% 0.00 in SCT
23:15 73.2 °F 67.7 °F 30.05 in Calm     83% 0.00 in SCT
23:30 73.0 °F 67.9 °F 30.04 in Calm     84% 0.00 in SCT
23:45 72.8 °F 68.0 °F 30.05 in Calm     85% 0.00 in SCT
Piedmont Bend
Compliments of Weather Underground - 4 mb